Latest Weather Observations for Campania

IDT60901

Issued at 2:11 pm EST Wednesday 5 August 2015 (issued every 10 minutes, with the page automatically refreshed every 10 minutes)

About weather observations | Map of Hobart area stations | Latest observations for Hobart area | Other Formats
Station Details ID: 094212 Name: CAMPANIA (KINCORA) Lat: -42.69 Lon: 147.43 Height: 45.0 m
Data from the previous 72 hours. | See also: Recent months at Campania
Date/Time
EST
Tmp

°C
App
Tmp
°C
Dew
Point
°C
Rel
Hum
%
Delta-T

°C
Wind Press
QNH
hPa
Press
MSL
hPa
Rain
since
9 am
mm
Dir
 
Spd
km/h
Gust
km/h
Spd
kts
Gust
kts
05/02:00pm 7.1 1.6 1.6 68 2.2 W 20 32 11 17 - - 0.0
05/01:30pm 5.7 -1.9 0.5 69 2.0 W 30 43 16 23 - - 0.0
05/01:24pm 5.4 -2.8 0.6 71 1.9 WSW 33 52 18 28 - - 0.0
05/01:00pm 5.8 0.2 1.3 73 1.8 W 20 37 11 20 - - 0.0
05/12:30pm 6.0 -0.5 0.6 68 2.1 WNW 24 35 13 19 - - 0.0
05/12:00pm 6.7 0.7 0.8 66 2.3 WNW 22 33 12 18 - - 0.0
05/11:30am 6.7 1.5 0.4 64 2.5 W 17 24 9 13 - - 0.0
05/11:00am 6.0 -0.6 -0.1 65 2.3 WNW 24 39 13 21 - - 0.0
05/10:30am 6.2 0.0 -0.3 63 2.5 WNW 22 35 12 19 - - 0.0
05/10:00am 5.6 -1.8 -0.9 63 2.4 WNW 28 48 15 26 - - 0.0
05/09:57am 5.7 -1.7 -0.6 64 2.4 WNW 28 48 15 26 - - 0.0
05/09:30am 5.3 -1.8 -0.9 64 2.3 WNW 26 44 14 24 - - 0.0
05/09:00am 4.7 -2.1 -2.2 61 2.5 WNW 24 35 13 19 - - 2.0
05/08:30am 4.2 -1.9 -2.0 64 2.2 WNW 20 35 11 19 - - 2.0
05/08:00am 4.0 -1.5 -2.4 63 2.3 WNW 17 30 9 16 - - 2.0
05/07:30am 3.5 -1.7 -2.9 63 2.2 NNW 15 24 8 13 - - 2.0
05/07:00am 3.3 -1.9 -2.8 64 2.1 NW 15 20 8 11 - - 2.0
05/06:30am 3.1 -2.1 -2.8 65 2.0 WNW 15 26 8 14 - - 2.0
05/06:00am 3.0 -1.8 -2.9 65 2.0 NW 13 20 7 11 - - 2.0
05/05:30am 3.2 -2.9 -2.7 65 2.1 WNW 20 33 11 18 - - 2.0
05/05:00am 3.0 -4.6 -2.1 69 1.8 WNW 28 43 15 23 - - 2.0
05/04:30am 3.7 -2.2 -2.5 64 2.2 W 19 32 10 17 - - 2.0
05/04:00am 3.8 -2.3 -2.6 63 2.2 W 20 30 11 16 - - 2.0
05/03:39am 3.9 -4.1 -2.3 64 2.2 W 30 48 16 26 - - 2.0
05/03:30am 4.2 -5.1 -2.2 63 2.3 W 37 50 20 27 - - 2.0
05/03:05am 5.1 -2.5 -1.8 61 2.5 W 28 50 15 27 - - 1.8
05/03:00am 4.9 -2.2 -1.5 63 2.3 W 26 37 14 20 - - 1.8
05/02:30am 4.3 -0.9 0.1 74 1.6 WSW 17 24 9 13 - - 1.8
05/02:00am 4.6 -3.0 0.7 76 1.5 WSW 30 43 16 23 - - 1.8
05/01:30am 5.5 -0.1 0.9 72 1.8 W 20 32 11 17 - - 1.8
05/01:00am 5.5 0.5 1.6 76 1.6 W 17 26 9 14 - - 1.8
05/12:30am 6.0 1.8 1.9 75 1.7 W 13 22 7 12 - - 1.6
05/12:00am 5.4 0.8 1.3 75 1.6 NW 15 26 8 14 - - 1.4
 
Date/Time
EST
Tmp

°C
App
Tmp
°C
Dew
Point
°C
Rel
Hum
%
Delta-T

°C
Wind Press
QNH
hPa
Press
MSL
hPa
Rain
since
9 am
mm
Dir
 
Spd
km/h
Gust
km/h
Spd
kts
Gust
kts
04/11:30pm 5.7 2.0 2.4 79 1.3 W 11 20 6 11 - - 1.4
04/11:00pm 6.7 0.8 1.4 69 2.1 WNW 22 35 12 19 - - 1.2
04/10:30pm 6.3 0.3 1.2 70 2.0 WNW 22 35 12 19 - - 1.2
04/10:00pm 6.4 0.8 1.3 70 2.0 WNW 20 32 11 17 - - 1.2
04/09:30pm 6.8 0.1 1.7 70 2.1 NW 26 35 14 19 - - 1.2
04/09:00pm 7.1 1.6 1.8 69 2.2 NW 20 32 11 17 - - 1.2
04/08:30pm 6.2 -1.1 2.7 78 1.4 WNW 30 50 16 27 - - 1.2
04/08:00pm 7.4 0.3 3.6 77 1.6 WNW 30 50 16 27 - - 0.4
04/07:47pm 7.8 0.3 3.5 74 1.8 WNW 32 61 17 33 - - 0.2
04/07:30pm 8.4 1.6 3.1 69 2.3 NW 28 39 15 21 - - 0.0
04/07:00pm 8.8 1.9 2.8 66 2.5 NW 28 50 15 27 - - 0.0
04/06:36pm 8.9 2.0 2.5 64 2.7 NW 28 46 15 25 - - 0.0
04/06:30pm 8.9 1.6 2.7 65 2.6 NW 30 44 16 24 - - 0.0
04/06:00pm 9.3 1.4 2.2 61 3.0 NW 33 52 18 28 - - 0.0
04/05:30pm 9.7 1.4 2.1 59 3.2 NW 35 61 19 33 - - 0.0
04/05:11pm 9.5 1.6 2.4 61 3.0 NNW 33 54 18 29 - - 0.0
04/05:00pm 9.6 1.7 2.2 60 3.1 NW 33 50 18 27 - - 0.0
04/04:34pm 9.8 2.1 2.4 60 3.1 NW 32 50 17 27 - - 0.0
04/04:30pm 9.6 2.3 2.5 61 3.0 NW 30 43 16 23 - - 0.0
04/04:01pm 10.0 3.1 2.4 59 3.2 NNW 28 46 15 25 - - 0.0
04/04:00pm 10.0 2.7 2.4 59 3.2 NNW 30 46 16 25 - - 0.0
04/03:32pm 10.7 3.0 2.3 56 3.6 NNW 32 50 17 27 - - 0.0
04/03:30pm 10.8 3.1 2.4 56 3.6 NNW 32 46 17 25 - - 0.0
04/03:00pm 11.0 2.3 2.3 55 3.7 NW 37 65 20 35 - - 0.0
04/02:54pm 11.3 2.6 2.3 54 3.9 NW 37 65 20 35 - - 0.0
04/02:30pm 11.3 4.4 2.6 55 3.8 NW 28 46 15 25 - - 0.0
04/02:02pm 11.6 4.8 2.9 55 3.8 NNW 28 50 15 27 - - 0.0
04/02:00pm 11.6 5.1 2.6 54 3.9 NW 26 39 14 21 - - 0.0
04/01:33pm 11.1 3.8 2.2 54 3.8 NNW 30 52 16 28 - - 0.0
04/01:30pm 11.2 4.7 2.5 55 3.8 NNW 26 44 14 24 - - 0.0
04/01:07pm 10.8 3.0 1.9 54 3.8 NNW 32 54 17 29 - - 0.0
04/01:00pm 11.1 3.8 2.4 55 3.7 NNW 30 44 16 24 - - 0.0
04/12:30pm 11.1 4.6 2.4 55 3.7 NNW 26 35 14 19 - - 0.0
04/12:00pm 10.0 2.6 1.6 56 3.5 NNW 30 54 16 29 - - 0.0
04/11:43am 10.3 3.3 2.2 57 3.4 NNW 28 46 15 25 - - 0.0
04/11:30am 10.2 4.0 2.3 58 3.4 NW 24 35 13 19 - - 0.0
04/11:00am 9.8 4.6 2.2 59 3.2 N 19 33 10 18 - - 0.0
04/10:30am 8.1 1.0 1.3 62 2.8 NNW 28 41 15 22 - - 0.0
04/10:00am 7.2 0.9 1.3 66 2.4 N 24 35 13 19 - - 0.0
04/09:30am 6.4 -0.1 0.3 65 2.4 N 24 33 13 18 - - 0.0
04/09:00am 6.1 -0.4 0.2 66 2.3 N 24 39 13 21 - - 5.0
04/08:30am 5.5 -0.7 -0.1 67 2.1 N 22 32 12 17 - - 5.0
04/08:00am 5.3 -1.0 -0.7 65 2.3 N 22 32 12 17 - - 5.0
04/07:30am 5.3 -1.3 -0.7 65 2.3 N 24 32 13 17 - - 5.0
04/07:00am 5.2 -0.1 -0.8 65 2.2 NNW 17 22 9 12 - - 5.0
04/06:30am 4.6 -0.4 -1.0 67 2.1 N 15 22 8 12 - - 5.0
04/06:00am 4.1 -0.2 -1.3 68 2.0 N 11 15 6 8 - - 5.0
04/05:30am 4.9 -0.1 -1.1 65 2.2 N 15 26 8 14 - - 5.0
04/05:00am 4.1 -0.2 -1.3 68 2.0 N 11 20 6 11 - - 5.0
04/04:30am 3.2 -1.1 -1.3 72 1.6 N 11 15 6 8 - - 5.0
04/04:00am 3.2 -1.1 -1.5 71 1.7 N 11 17 6 9 - - 5.0
04/03:30am 3.5 -0.8 -1.4 70 1.8 NNW 11 22 6 12 - - 5.0
04/03:00am 3.2 -1.4 -1.3 72 1.6 NNW 13 20 7 11 - - 5.0
04/02:30am 3.2 -1.8 -1.3 72 1.6 N 15 20 8 11 - - 5.0
04/02:00am 2.1 -2.2 -1.3 78 1.2 N 11 15 6 8 - - 5.0
04/01:30am 0.8 -2.7 -1.6 84 0.9 N 7 11 4 6 - - 5.0
04/01:00am 1.6 -3.4 -1.1 82 1.0 N 15 19 8 10 - - 5.0
04/12:30am 2.3 -2.7 -1.1 78 1.2 N 15 20 8 11 - - 5.0
04/12:00am 2.0 -3.0 -1.1 80 1.1 N 15 20 8 11 - - 5.0
 
Date/Time
EST
Tmp

°C
App
Tmp
°C
Dew
Point
°C
Rel
Hum
%
Delta-T

°C
Wind Press
QNH
hPa
Press
MSL
hPa
Rain
since
9 am
mm
Dir
 
Spd
km/h
Gust
km/h
Spd
kts
Gust
kts
03/11:30pm 3.1 -2.6 -0.7 76 1.4 N 19 22 10 12 - - 5.0
03/11:00pm 3.5 -0.7 -0.9 73 1.6 NW 11 19 6 10 - - 5.0
03/10:30pm 2.3 -1.5 -1.0 79 1.2 N 9 15 5 8 - - 5.0
03/10:00pm 1.3 -3.0 -1.4 82 0.9 N 11 15 6 8 - - 5.0
03/09:30pm 1.8 -2.0 -0.8 83 0.9 NNW 9 15 5 8 - - 5.0
03/09:00pm 2.2 -2.0 -1.1 79 1.2 NW 11 15 6 8 - - 5.0
03/08:30pm 4.3 -0.2 -0.5 71 1.8 WNW 13 19 7 10 - - 5.0
03/08:00pm 4.9 0.0 -0.3 69 2.0 W 15 24 8 13 - - 5.0
03/07:30pm 4.8 -2.2 -0.2 70 1.9 WSW 26 37 14 20 - - 5.0
03/07:00pm 4.9 -1.3 -0.1 70 1.9 W 22 35 12 19 - - 5.0
03/06:30pm 4.9 -2.0 0.1 71 1.8 W 26 35 14 19 - - 5.0
03/06:00pm 4.7 -1.7 0.7 75 1.5 W 24 33 13 18 - - 5.0
03/05:30pm 4.7 -1.6 1.4 79 1.3 W 24 39 13 21 - - 5.0
03/05:00pm 5.3 -1.1 1.2 75 1.6 W 24 37 13 20 - - 4.6
03/04:30pm 5.1 -1.2 1.4 77 1.5 W 24 35 13 19 - - 4.4
03/04:00pm 4.5 -2.1 2.0 84 1.0 W 26 35 14 19 - - 4.4
03/03:30pm 4.5 -2.2 1.7 82 1.1 W 26 39 14 21 - - 3.8
03/03:00pm 3.9 -2.0 1.9 87 0.8 W 22 39 12 21 - - 3.4
03/02:30pm 4.0 -0.9 1.7 85 0.9 WSW 17 37 9 20 - - 2.0
03/02:00pm 4.4 -0.2 1.3 80 1.2 W 15 24 8 13 - - 0.6
03/01:30pm 4.9 -0.5 1.0 76 1.5 W 19 30 10 16 - - 0.0
03/01:00pm 5.6 -0.5 0.6 70 1.9 WNW 22 32 12 17 - - 0.0
03/12:30pm 5.1 -2.5 0.3 71 1.8 W 30 41 16 22 - - 0.0
03/12:00pm 5.4 -0.7 0.4 70 1.9 W 22 37 12 20 - - 0.0
03/11:30am 4.9 -0.9 0.1 71 1.8 W 20 32 11 17 - - 0.0
03/11:00am 3.5 -2.3 0.0 78 1.3 WNW 20 33 11 18 - - 0.0
03/10:30am 3.9 -3.5 -0.9 71 1.8 W 28 37 15 20 - - 0.0
03/10:00am 4.2 -2.2 -1.4 67 2.0 W 22 35 12 19 - - 0.0
03/09:30am 3.8 -3.3 -1.2 70 1.8 WNW 26 46 14 25 - - 0.0
03/09:28am 3.9 -3.6 -1.3 69 1.9 WNW 28 46 15 25 - - 0.0
03/09:00am 3.4 -4.5 -1.2 72 1.7 WNW 30 44 16 24 - - 4.6
03/08:34am 2.8 -5.1 -1.5 73 1.5 WNW 30 48 16 26 - - 4.6
03/08:30am 2.8 -4.4 -1.7 72 1.6 WNW 26 39 14 21 - - 4.6
03/08:00am 2.3 -4.4 -1.3 77 1.3 WNW 24 37 13 20 - - 4.0
03/07:30am 1.9 -4.0 -0.8 82 1.0 NW 20 32 11 17 - - 3.6
03/07:00am 2.4 -2.6 -1.4 76 1.4 W 15 24 8 13 - - 3.2
03/06:30am 1.9 -4.5 -1.5 78 1.2 WNW 22 37 12 20 - - 3.2
03/06:00am 2.0 -4.3 -1.2 79 1.1 WNW 22 33 12 18 - - 3.2
03/05:30am 1.7 -3.7 -1.0 82 1.0 WNW 17 20 9 11 - - 3.2
03/05:00am 1.1 -4.7 -0.2 91 0.5 WNW 20 35 11 19 - - 3.0
03/04:41am 1.6 -6.6 -1.1 82 1.0 WSW 32 44 17 24 - - 2.6
03/04:30am 3.2 -1.8 -1.3 72 1.6 WNW 15 24 8 13 - - 2.4
03/04:00am 2.8 -2.1 -0.8 77 1.3 NW 15 26 8 14 - - 2.4
03/03:30am 2.1 -3.7 -0.3 84 0.9 NW 20 32 11 17 - - 2.4
03/03:00am 4.1 -1.2 -0.7 71 1.8 WNW 17 24 9 13 - - 2.0
03/02:30am 3.8 -1.4 -0.2 75 1.5 NW 17 24 9 13 - - 2.0
03/02:00am 3.8 -1.8 0.0 76 1.4 NW 19 28 10 15 - - 2.0
03/01:30am 4.3 -1.2 0.5 76 1.5 WNW 19 26 10 14 - - 2.0
03/01:00am 4.0 -1.2 0.0 75 1.5 NNW 17 20 9 11 - - 2.0
03/12:30am 3.9 -1.6 0.8 80 1.2 NW 19 30 10 16 - - 2.0
03/12:00am 4.4 -2.1 0.6 76 1.5 NW 24 46 13 25 - - 1.8
 
Date/Time
EST
Tmp

°C
App
Tmp
°C
Dew
Point
°C
Rel
Hum
%
Delta-T

°C
Wind Press
QNH
hPa
Press
MSL
hPa
Rain
since
9 am
mm
Dir
 
Spd
km/h
Gust
km/h
Spd
kts
Gust
kts
02/11:30pm 4.7 -1.0 0.5 74 1.6 NW 20 33 11 18 - - 1.8
02/11:00pm 3.6 -0.3 1.0 83 1.0 NNW 11 20 6 11 - - 1.8
02/10:30pm 3.6 -1.8 1.2 84 0.9 N 19 28 10 15 - - 1.8
02/10:00pm 3.8 -1.8 1.0 82 1.1 N 20 35 11 19 - - 1.2
02/09:30pm 4.1 -4.1 0.6 78 1.3 NNW 33 54 18 29 - - 1.0
02/09:20pm 4.9 -2.4 -0.1 70 1.9 NNW 28 52 15 28 - - 1.0
02/09:00pm 5.2 -1.4 -0.4 67 2.1 NNW 24 39 13 21 - - 1.0
02/08:30pm 4.4 -0.6 -1.2 67 2.1 NNW 15 24 8 13 - - 1.0
02/08:00pm 5.1 -2.0 -1.6 62 2.5 NW 26 44 14 24 - - 1.0
02/07:30pm 5.0 0.0 -1.4 63 2.4 NW 15 26 8 14 - - 1.0
02/07:00pm 3.8 0.0 -1.0 71 1.8 NNW 9 17 5 9 - - 1.0
02/06:30pm 4.0 0.7 -1.2 69 1.9 NNW 6 9 3 5 - - 1.0
02/06:00pm 4.7 -0.2 -0.7 68 2.0 NW 15 24 8 13 - - 1.0
02/05:30pm 5.5 -0.4 -0.5 65 2.3 NNW 20 35 11 19 - - 1.0
02/05:00pm 4.4 0.3 0.0 73 1.7 NNW 11 15 6 8 - - 1.0
02/04:30pm 5.5 -0.2 0.3 69 2.0 NW 20 33 11 18 - - 1.0
02/04:00pm 6.0 -1.3 -0.3 64 2.4 WNW 28 43 15 23 - - 1.0
02/03:30pm 6.5 -0.2 1.4 70 2.0 WNW 26 39 14 21 - - 1.0
02/03:00pm 6.0 0.5 1.7 74 1.7 W 20 33 11 18 - - 1.0
02/02:30pm 5.8 -0.1 1.5 74 1.7 WNW 22 37 12 20 - - 1.0

Latest Capital City Observations: Canberra | Sydney | Melbourne | Brisbane | Adelaide | Perth | Hobart | Darwin

Other Formats:

Comma delimited format used in spreadsheet applications
http://www.bom.gov.au/fwo/IDT60901/IDT60901.95972.axf

JavaScript Object Notation format (JSON) in row-major order
http://www.bom.gov.au/fwo/IDT60901/IDT60901.95972.json